Time;durP1;ratioP1;P1;durP2;ratioP2;P2;SDS_P1;SDS_P2;PMS_P1;PMS_P2;Temp;Humidity;BMP_temperature;BMP_pressure;BME280_temperature;BME280_humidity;BME280_pressure;Samples;Min_cycle;Max_cycle;Signal;HPM_P1;HPM_P2
2021/04/27 00:00:43;;;;;;;8.15;4.90;;;7.30;62.00;;;;;;5092347;28;20105;-64
2021/04/27 00:03:09;;;;;;;7.03;5.10;;;7.30;62.20;;;;;;5092361;28;20073;-64
2021/04/27 00:05:35;;;;;;;7.38;5.28;;;7.30;62.40;;;;;;5091871;28;20035;-64
2021/04/27 00:08:01;;;;;;;8.88;5.38;;;7.40;62.50;;;;;;5092111;28;20028;-64
2021/04/27 00:10:27;;;;;;;7.07;5.07;;;7.40;62.30;;;;;;5086722;28;20024;-64
2021/04/27 00:12:53;;;;;;;7.30;5.55;;;7.30;62.30;;;;;;5092089;28;20032;-64
2021/04/27 00:15:22;;;;;;;8.35;5.65;;;7.30;62.40;;;;;;5086572;28;20031;-64
2021/04/27 00:17:49;;;;;;;8.73;6.10;;;7.30;62.30;;;;;;5092269;28;20157;-64
2021/04/27 00:20:16;;;;;;;8.05;6.10;;;7.20;62.30;;;;;;5090576;28;20468;-64
2021/04/27 00:22:43;;;;;;;12.57;6.28;;;7.20;62.30;;;;;;5075939;28;20074;-64
2021/04/27 00:25:09;;;;;;;9.82;6.18;;;7.20;62.50;;;;;;5087044;28;20028;-64
2021/04/27 00:27:35;;;;;;;11.43;6.63;;;7.20;62.60;;;;;;5088811;28;20062;-64
2021/04/27 00:30:02;;;;;;;10.30;6.72;;;7.20;62.60;;;;;;5092157;28;20471;-64
2021/04/27 00:32:28;;;;;;;9.55;6.93;;;7.20;62.70;;;;;;5091496;28;20031;-64
2021/04/27 00:34:54;;;;;;;13.23;8.15;;;7.20;62.70;;;;;;5085350;28;20024;-64
2021/04/27 00:37:19;;;;;;;11.13;7.75;;;7.20;62.80;;;;;;5091734;28;20404;-64
2021/04/27 00:39:45;;;;;;;12.30;8.30;;;7.20;62.80;;;;;;5091434;28;20056;-64
2021/04/27 00:42:11;;;;;;;11.43;8.02;;;7.10;62.80;;;;;;5090615;28;20503;-64
2021/04/27 00:44:37;;;;;;;11.20;7.47;;;7.10;62.90;;;;;;5087433;28;20028;-64
2021/04/27 00:47:03;;;;;;;11.07;7.40;;;7.10;62.90;;;;;;5091531;28;20478;-64
2021/04/27 00:49:29;;;;;;;10.10;7.18;;;7.10;63.00;;;;;;5091076;28;20024;-64
2021/04/27 00:51:55;;;;;;;10.98;6.57;;;7.00;63.00;;;;;;5080557;28;20459;-64
2021/04/27 00:54:21;;;;;;;11.70;6.40;;;7.00;63.10;;;;;;5085910;28;20032;-64
2021/04/27 00:56:47;;;;;;;10.00;6.43;;;7.00;63.20;;;;;;5091132;28;20107;-64
2021/04/27 00:59:13;;;;;;;8.30;5.85;;;7.00;63.20;;;;;;5091231;28;20067;-64
2021/04/27 01:01:38;;;;;;;8.57;5.60;;;6.90;63.20;;;;;;5084112;28;20035;-64
2021/04/27 01:04:04;;;;;;;8.25;5.57;;;6.90;63.30;;;;;;5091675;28;20376;-64
2021/04/27 01:06:30;;;;;;;7.82;5.25;;;6.90;63.40;;;;;;5089148;28;20479;-64
2021/04/27 01:09:20;;;;;;;9.35;5.85;;;6.90;63.40;;;;;;5091571;28;20383;-64
2021/04/27 01:11:57;;;;;;;9.73;6.30;;;6.90;63.50;;;;;;5094590;28;20027;-64
2021/04/27 01:14:37;;;;;;;8.18;5.43;;;6.80;63.50;;;;;;5087545;28;20028;-64
2021/04/27 01:17:08;;;;;;;8.82;5.35;;;6.80;63.50;;;;;;5084726;28;20095;-64
2021/04/27 01:19:57;;;;;;;7.43;5.50;;;6.80;63.50;;;;;;5091187;28;20016;-64
2021/04/27 01:22:48;;;;;;;7.75;5.68;;;6.70;63.50;;;;;;5088978;28;20028;-64
2021/04/27 01:25:19;;;;;;;10.05;6.30;;;6.70;63.60;;;;;;5088186;28;20024;-64
2021/04/27 01:27:45;;;;;;;8.25;5.72;;;6.70;63.70;;;;;;5094867;28;20024;-64
2021/04/27 01:30:11;;;;;;;9.77;6.85;;;6.70;63.80;;;;;;5094886;28;20476;-64
2021/04/27 01:32:37;;;;;;;9.75;6.80;;;6.70;64.00;;;;;;5095219;28;20464;-64
2021/04/27 01:35:05;;;;;;;11.10;7.68;;;6.70;64.00;;;;;;5090491;28;20103;-64
2021/04/27 01:37:31;;;;;;;11.05;7.25;;;6.70;64.00;;;;;;5090383;28;20090;-64
2021/04/27 01:39:57;;;;;;;11.55;7.63;;;6.70;64.10;;;;;;5095215;28;20460;-64
2021/04/27 01:42:23;;;;;;;12.18;6.90;;;6.70;64.20;;;;;;5094783;28;20027;-64
2021/04/27 01:44:49;;;;;;;11.00;6.82;;;6.70;64.00;;;;;;5094340;28;20085;-64
2021/04/27 01:47:15;;;;;;;9.75;7.15;;;6.70;64.00;;;;;;5094699;28;20028;-64
2021/04/27 01:49:42;;;;;;;9.23;6.70;;;6.70;64.10;;;;;;5094508;28;20085;-64
2021/04/27 01:52:08;;;;;;;9.57;6.85;;;6.60;64.10;;;;;;5082444;28;20118;-64
2021/04/27 01:54:34;;;;;;;13.88;8.68;;;6.60;64.20;;;;;;5088146;28;20543;-64
2021/04/27 01:57:00;;;;;;;10.63;7.53;;;6.60;64.30;;;;;;5086618;28;20115;-64
2021/04/27 01:59:26;;;;;;;14.77;8.32;;;6.60;64.40;;;;;;5088260;28;20024;-64
2021/04/27 02:01:52;;;;;;;12.07;7.72;;;6.60;64.50;;;;;;5083259;28;20542;-64
2021/04/27 02:04:26;;;;;;;11.90;8.07;;;6.60;64.50;;;;;;5094178;28;20043;-64
2021/04/27 02:06:52;;;;;;;11.88;8.13;;;6.60;64.60;;;;;;5086269;28;20039;-64
2021/04/27 02:09:21;;;;;;;13.38;7.85;;;6.60;64.60;;;;;;5082122;28;20025;-64
2021/04/27 02:11:50;;;;;;;12.80;7.63;;;6.60;65.30;;;;;;5094710;28;20122;-64
2021/04/27 02:14:16;;;;;;;11.55;7.90;;;6.70;64.60;;;;;;5093860;28;20008;-64
2021/04/27 02:17:12;;;;;;;10.93;8.32;;;6.60;64.60;;;;;;5090015;28;20032;-64
2021/04/27 02:19:40;;;;;;;10.27;7.13;;;6.60;64.70;;;;;;5093639;28;20031;-64
2021/04/27 02:22:07;;;;;;;12.32;8.07;;;6.50;64.60;;;;;;5077777;28;20106;-64
2021/04/27 02:24:35;;;;;;;13.77;8.20;;;6.50;64.60;;;;;;5093014;28;20082;-64
2021/04/27 02:27:02;;;;;;;11.70;7.85;;;6.50;64.80;;;;;;5087879;28;20438;-64
2021/04/27 02:29:29;;;;;;;12.23;8.02;;;6.50;64.90;;;;;;5094409;28;20028;-64
2021/04/27 02:32:00;;;;;;;13.65;8.07;;;6.50;64.90;;;;;;5094204;28;20032;-64
2021/04/27 02:34:26;;;;;;;12.38;8.65;;;6.50;65.10;;;;;;5093664;28;20076;-64
2021/04/27 02:36:54;;;;;;;11.50;8.05;;;6.40;65.20;;;;;;5078140;28;20029;-64
2021/04/27 02:39:20;;;;;;;12.85;8.93;;;6.50;65.30;;;;;;5088757;28;20032;-64
2021/04/27 02:41:47;;;;;;;16.92;10.50;;;6.40;65.30;;;;;;5093338;28;20503;-64
2021/04/27 02:44:13;;;;;;;19.70;11.45;;;6.40;65.50;;;;;;5092194;28;20024;-64
2021/04/27 02:46:41;;;;;;;19.35;13.15;;;6.40;65.30;;;;;;5093313;28;20028;-64
2021/04/27 02:49:08;;;;;;;24.17;15.25;;;6.40;65.30;;;;;;5092415;28;20061;-64
2021/04/27 02:51:34;;;;;;;21.10;13.93;;;6.40;65.30;;;;;;5083375;28;20121;-64
2021/04/27 02:54:00;;;;;;;21.27;13.23;;;6.40;65.40;;;;;;5091235;28;20078;-64
2021/04/27 02:56:26;;;;;;;22.98;13.82;;;6.40;65.40;;;;;;5093015;28;20395;-64
2021/04/27 02:58:52;;;;;;;19.80;14.25;;;6.50;65.60;;;;;;5090157;28;20032;-64
2021/04/27 03:01:18;;;;;;;20.70;13.18;;;6.50;65.80;;;;;;5091068;28;20046;-64
2021/04/27 03:03:44;;;;;;;20.52;13.65;;;6.50;65.60;;;;;;5093410;28;20054;-64
2021/04/27 03:06:10;;;;;;;20.58;12.90;;;6.50;65.60;;;;;;5093253;28;20104;-64
2021/04/27 03:08:36;;;;;;;17.65;11.30;;;6.60;65.70;;;;;;5093433;28;20475;-64
2021/04/27 03:11:02;;;;;;;18.58;11.43;;;6.70;65.80;;;;;;5088245;28;20052;-64
2021/04/27 03:13:27;;;;;;;15.82;12.02;;;6.80;65.70;;;;;;5092714;28;20109;-64
2021/04/27 03:15:53;;;;;;;14.65;10.63;;;6.90;66.00;;;;;;5091736;28;20012;-64
2021/04/27 03:18:19;;;;;;;16.63;11.32;;;7.00;65.80;;;;;;5077645;28;20460;-64
2021/04/27 03:20:45;;;;;;;17.40;11.05;;;7.10;65.60;;;;;;5085064;28;20070;-64
2021/04/27 03:23:11;;;;;;;13.95;9.57;;;7.30;65.60;;;;;;5092292;28;20028;-64
2021/04/27 03:25:37;;;;;;;19.60;10.25;;;7.40;65.60;;;;;;5090465;28;20038;-64
2021/04/27 03:28:05;;;;;;;19.75;11.27;;;7.50;65.30;;;;;;5083353;28;20034;-64
2021/04/27 03:30:31;;;;;;;16.30;11.68;;;7.70;65.80;;;;;;5087134;28;20073;-64
2021/04/27 03:32:57;;;;;;;14.52;11.10;;;7.80;65.30;;;;;;5072974;28;20026;-64
2021/04/27 03:35:23;;;;;;;15.82;10.45;;;8.00;65.00;;;;;;5090483;28;20032;-64
2021/04/27 03:37:49;;;;;;;15.60;10.02;;;8.20;64.70;;;;;;5089233;28;20448;-64
2021/04/27 03:40:15;;;;;;;12.48;9.35;;;8.40;65.10;;;;;;5092409;28;20051;-64
2021/04/27 03:42:40;;;;;;;15.65;9.82;;;8.60;64.40;;;;;;5091188;28;20032;-64
2021/04/27 03:45:11;;;;;;;11.10;8.80;;;8.70;63.80;;;;;;5084272;28;20020;-64
2021/04/27 03:47:37;;;;;;;11.80;7.95;;;8.90;63.60;;;;;;5085345;28;20379;-64
2021/04/27 03:50:05;;;;;;;10.85;7.57;;;9.00;63.50;;;;;;5088190;28;20131;-64
2021/04/27 03:52:31;;;;;;;10.48;7.45;;;9.10;63.00;;;;;;5080291;28;20498;-64
2021/04/27 03:54:57;;;;;;;9.30;6.85;;;9.20;62.80;;;;;;5093277;28;20030;-64
2021/04/27 03:57:22;;;;;;;9.68;6.93;;;9.20;62.70;;;;;;5089060;28;20054;-64
2021/04/27 03:59:48;;;;;;;9.95;7.50;;;9.40;62.80;;;;;;5090314;28;20494;-65
2021/04/27 04:02:14;;;;;;;9.68;6.88;;;9.50;63.40;;;;;;5092093;28;20539;-65
2021/04/27 04:04:39;;;;;;;11.05;7.40;;;9.80;64.20;;;;;;5092789;28;20032;-64
2021/04/27 04:07:05;;;;;;;12.40;7.18;;;10.10;63.30;;;;;;5089163;28;20021;-64
2021/04/27 04:09:31;;;;;;;12.13;7.55;;;10.50;62.80;;;;;;5090847;28;20024;-64
2021/04/27 04:11:57;;;;;;;10.10;7.38;;;10.90;61.90;;;;;;5092275;28;20364;-64
2021/04/27 04:14:23;;;;;;;8.27;6.95;;;11.30;60.70;;;;;;5091927;28;20028;-64
2021/04/27 04:16:48;;;;;;;10.48;7.13;;;11.70;60.00;;;;;;5089893;28;20032;-64
2021/04/27 04:19:14;;;;;;;9.63;7.25;;;12.20;58.90;;;;;;5091736;28;20026;-64
2021/04/27 04:21:40;;;;;;;9.57;7.03;;;12.60;57.50;;;;;;5092171;28;20112;-64
2021/04/27 04:24:06;;;;;;;8.50;6.97;;;12.90;56.40;;;;;;5090595;28;20028;-64
2021/04/27 04:26:32;;;;;;;9.90;7.18;;;13.20;55.70;;;;;;5080511;28;20036;-64
2021/04/27 04:28:58;;;;;;;9.15;7.25;;;13.40;55.10;;;;;;5089854;28;20480;-64
2021/04/27 04:31:23;;;;;;;9.48;6.93;;;13.50;54.40;;;;;;5092545;28;20028;-64
2021/04/27 04:33:49;;;;;;;8.80;7.22;;;13.70;54.00;;;;;;5091838;28;20028;-64
2021/04/27 04:36:15;;;;;;;9.20;6.78;;;13.80;54.00;;;;;;5091666;28;20170;-64
2021/04/27 04:38:40;;;;;;;10.18;7.20;;;14.20;54.10;;;;;;5090243;28;20032;-64
2021/04/27 04:41:08;;;;;;;9.45;7.22;;;14.80;53.70;;;;;;5090811;28;20099;-64
2021/04/27 04:43:33;;;;;;;10.75;6.82;;;15.40;52.70;;;;;;5090024;28;20025;-64
2021/04/27 04:45:59;;;;;;;8.13;6.95;;;16.00;51.80;;;;;;5095480;28;20361;-64
2021/04/27 04:48:25;;;;;;;10.25;6.57;;;16.60;51.50;;;;;;5096130;28;20081;-64
2021/04/27 04:50:51;;;;;;;8.80;5.95;;;17.20;50.70;;;;;;5096622;28;20040;-64
2021/04/27 04:53:17;;;;;;;8.32;5.88;;;17.90;49.90;;;;;;5087580;28;20039;-64
2021/04/27 04:55:43;;;;;;;9.13;6.25;;;18.60;48.90;;;;;;5096465;28;20270;-65
2021/04/27 04:58:08;;;;;;;10.52;6.25;;;19.20;47.60;;;;;;5091121;28;20455;-64
2021/04/27 05:00:34;;;;;;;8.25;5.90;;;19.40;46.20;;;;;;5094073;28;20055;-64
2021/04/27 05:03:00;;;;;;;8.18;5.72;;;19.60;45.60;;;;;;5096416;28;20122;-65
2021/04/27 05:05:26;;;;;;;8.18;5.30;;;19.80;45.30;;;;;;5086578;28;20027;-64
2021/04/27 05:08:16;;;;;;;7.93;5.50;;;19.90;44.90;;;;;;5087578;28;20104;-64
2021/04/27 05:10:42;;;;;;;6.73;5.37;;;19.90;44.00;;;;;;5095381;28;20031;-64
2021/04/27 05:13:08;;;;;;;5.25;3.97;;;19.70;43.60;;;;;;5095708;28;20479;-64
2021/04/27 05:15:33;;;;;;;3.97;3.58;;;19.60;43.50;;;;;;5088060;28;20016;-64
2021/04/27 05:18:00;;;;;;;4.68;3.17;;;19.50;43.40;;;;;;5094682;28;20533;-65
2021/04/27 05:20:26;;;;;;;5.80;3.40;;;19.30;43.00;;;;;;5086104;28;20056;-64
2021/04/27 05:22:52;;;;;;;5.55;3.42;;;19.20;42.90;;;;;;5085766;28;20447;-64
2021/04/27 05:25:19;;;;;;;4.10;3.28;;;19.20;42.80;;;;;;5080605;28;20029;-58
2021/04/27 05:27:45;;;;;;;3.78;3.20;;;19.20;42.30;;;;;;5093729;28;20016;-57
2021/04/27 05:30:11;;;;;;;6.03;3.60;;;19.20;41.70;;;;;;5095360;28;20027;-58
2021/04/27 05:32:37;;;;;;;5.00;3.50;;;18.90;41.50;;;;;;5089534;28;20043;-55
2021/04/27 05:35:05;;;;;;;7.53;4.05;;;18.30;42.20;;;;;;5094844;28;20027;-57
2021/04/27 05:37:30;;;;;;;4.65;3.50;;;17.60;42.90;;;;;;5094185;28;20035;-56
2021/04/27 05:39:56;;;;;;;6.57;3.92;;;16.90;43.30;;;;;;5086152;28;20395;-55
2021/04/27 05:42:22;;;;;;;6.03;4.10;;;16.20;44.40;;;;;;5076922;28;20020;-56
2021/04/27 05:44:47;;;;;;;5.10;3.40;;;15.60;45.30;;;;;;5085674;28;20036;-56
2021/04/27 05:47:13;;;;;;;4.82;3.75;;;15.10;45.90;;;;;;5091398;28;20337;-56
2021/04/27 05:49:39;;;;;;;6.45;3.90;;;14.70;46.50;;;;;;5088201;28;20044;-56
2021/04/27 05:52:05;;;;;;;4.53;3.53;;;14.30;47.10;;;;;;5090148;28;20036;-57
2021/04/27 05:54:31;;;;;;;5.10;4.15;;;14.00;47.60;;;;;;5082844;28;20031;-57
2021/04/27 05:56:57;;;;;;;4.57;4.03;;;13.80;47.90;;;;;;5079751;28;20070;-58
2021/04/27 05:59:22;;;;;;;4.65;3.67;;;13.60;48.30;;;;;;5084410;28;20720;-57
2021/04/27 06:01:49;;;;;;;5.38;3.55;;;13.40;48.60;;;;;;5086640;28;20020;-59
2021/04/27 06:04:16;;;;;;;5.03;3.72;;;13.20;48.70;;;;;;5090102;28;20032;-60
2021/04/27 06:06:42;;;;;;;5.93;3.90;;;13.00;48.90;;;;;;5092662;28;20032;-61
2021/04/27 06:09:08;;;;;;;4.22;3.47;;;12.90;49.30;;;;;;5082740;28;20498;-61
2021/04/27 06:11:34;;;;;;;4.95;3.90;;;12.80;49.50;;;;;;5089512;28;20032;-60
2021/04/27 06:14:00;;;;;;;5.57;3.72;;;12.70;49.90;;;;;;5085345;28;20024;-61
2021/04/27 06:16:27;;;;;;;4.72;3.85;;;12.70;50.10;;;;;;5085221;28;20024;-61
2021/04/27 06:18:52;;;;;;;4.72;3.80;;;12.60;50.10;;;;;;5092906;28;20436;-61
2021/04/27 06:21:18;;;;;;;5.25;3.78;;;12.60;50.30;;;;;;5087512;28;20090;-61
2021/04/27 06:23:44;;;;;;;5.15;4.05;;;12.50;50.50;;;;;;5085840;28;20016;-61
2021/04/27 06:26:10;;;;;;;5.45;3.70;;;12.40;50.60;;;;;;5078240;28;21946;-61
2021/04/27 06:28:35;;;;;;;5.50;3.80;;;12.40;50.90;;;;;;5082224;28;20077;-61
2021/04/27 06:31:01;;;;;;;6.85;4.63;;;12.30;51.10;;;;;;5082035;28;20935;-61
2021/04/27 06:33:28;;;;;;;4.47;3.72;;;12.30;51.40;;;;;;5078644;28;20028;-61
2021/04/27 06:35:54;;;;;;;5.32;3.63;;;12.30;51.60;;;;;;5083970;28;20024;-62
2021/04/27 06:38:20;;;;;;;5.15;3.75;;;12.30;51.70;;;;;;5080149;28;20376;-61
2021/04/27 06:40:48;;;;;;;5.03;3.70;;;12.30;51.80;;;;;;5079283;28;20108;-62
2021/04/27 06:43:14;;;;;;;5.32;3.90;;;12.30;51.70;;;;;;5078357;28;20687;-62
2021/04/27 06:45:40;;;;;;;4.80;3.95;;;12.30;51.80;;;;;;5076397;28;20037;-62
2021/04/27 06:48:06;;;;;;;7.50;4.07;;;12.30;51.90;;;;;;5081329;28;20031;-61
2021/04/27 06:50:35;;;;;;;4.70;3.60;;;12.30;52.20;;;;;;5081051;28;20052;-60
2021/04/27 06:53:02;;;;;;;5.32;3.83;;;12.30;52.20;;;;;;5080430;28;20435;-61
2021/04/27 06:55:28;;;;;;;4.85;3.78;;;12.30;53.40;;;;;;5077475;28;20024;-62
2021/04/27 06:57:54;;;;;;;5.13;3.88;;;12.30;52.50;;;;;;5076338;28;20039;-62
2021/04/27 07:00:20;;;;;;;5.57;4.03;;;12.40;52.80;;;;;;5077999;28;20024;-62
2021/04/27 07:02:46;;;;;;;5.10;4.07;;;12.40;52.80;;;;;;5082088;28;20174;-62
2021/04/27 07:05:12;;;;;;;5.07;3.70;;;12.50;52.60;;;;;;5075719;28;20154;-62
2021/04/27 07:07:37;;;;;;;5.32;3.70;;;12.60;52.50;;;;;;5081179;28;20082;-61
2021/04/27 07:10:04;;;;;;;5.00;3.53;;;12.70;52.30;;;;;;5078597;28;20036;-62
2021/04/27 07:12:30;;;;;;;4.78;3.88;;;12.80;52.30;;;;;;5061675;28;20036;-62
2021/04/27 07:14:55;;;;;;;5.95;4.30;;;12.80;51.90;;;;;;5076831;28;20515;-62
2021/04/27 07:17:21;;;;;;;6.05;3.75;;;12.80;51.80;;;;;;5081508;28;20487;-61
2021/04/27 07:19:47;;;;;;;5.10;3.58;;;12.90;51.90;;;;;;5080192;28;20032;-62
2021/04/27 07:22:13;;;;;;;5.00;3.60;;;12.80;51.70;;;;;;5085048;28;20020;-62
2021/04/27 07:24:39;;;;;;;4.72;3.67;;;12.80;51.60;;;;;;5073172;28;20119;-62
2021/04/27 07:27:05;;;;;;;5.47;3.78;;;12.80;51.70;;;;;;5076217;28;20058;-61
2021/04/27 07:29:31;;;;;;;5.63;4.47;;;12.90;51.60;;;;;;5073131;28;20606;-62
2021/04/27 07:31:57;;;;;;;5.68;4.15;;;12.80;51.40;;;;;;5079864;28;20036;-62
2021/04/27 07:34:23;;;;;;;4.47;3.85;;;12.80;51.20;;;;;;5080375;28;20577;-62
2021/04/27 07:36:49;;;;;;;4.82;3.85;;;12.80;51.10;;;;;;5084932;28;20939;-62
2021/04/27 07:39:15;;;;;;;4.97;3.80;;;12.80;51.00;;;;;;5072093;28;20028;-61
2021/04/27 07:41:42;;;;;;;4.78;3.80;;;12.80;50.80;;;;;;5080109;28;20115;-61
2021/04/27 07:44:08;;;;;;;5.60;4.32;;;12.70;50.70;;;;;;5074313;28;20031;-62
2021/04/27 07:46:34;;;;;;;5.95;4.40;;;12.70;50.80;;;;;;5077362;28;20093;-62
2021/04/27 07:49:02;;;;;;;5.40;4.15;;;12.70;51.00;;;;;;5078303;28;20905;-62
2021/04/27 07:51:28;;;;;;;4.50;3.65;;;12.70;51.00;;;;;;5076965;28;20460;-62
2021/04/27 07:53:54;;;;;;;5.03;3.50;;;12.80;50.80;;;;;;5076119;28;20744;-61
2021/04/27 07:56:21;;;;;;;3.78;2.78;;;12.80;50.50;;;;;;5074131;28;20052;-61
2021/04/27 07:58:48;;;;;;;5.07;3.70;;;12.70;50.50;;;;;;5078360;28;20039;-62
2021/04/27 08:01:13;;;;;;;4.30;3.05;;;12.60;50.40;;;;;;5074031;28;20031;-61
2021/04/27 08:03:39;;;;;;;3.50;2.92;;;12.60;50.00;;;;;;5067105;28;20032;-61
2021/04/27 08:06:06;;;;;;;4.88;3.72;;;12.50;49.70;;;;;;5071330;28;20032;-62
2021/04/27 08:08:32;;;;;;;5.63;3.80;;;12.50;49.90;;;;;;5076691;28;20028;-62
2021/04/27 08:10:58;;;;;;;4.97;3.83;;;12.50;49.70;;;;;;5070984;28;20536;-62
2021/04/27 08:13:24;;;;;;;5.00;3.83;;;12.50;49.20;;;;;;5071000;28;20024;-62
2021/04/27 08:15:49;;;;;;;5.68;4.00;;;12.40;49.30;;;;;;5073402;28;20756;-62
2021/04/27 08:18:15;;;;;;;10.38;4.05;;;12.50;49.50;;;;;;5074119;28;20126;-62
2021/04/27 08:20:41;;;;;;;4.38;3.50;;;12.50;49.90;;;;;;5073314;28;20055;-62
2021/04/27 08:23:10;;;;;;;5.03;3.63;;;12.50;49.90;;;;;;5074040;28;20372;-62
2021/04/27 08:25:36;;;;;;;4.80;3.47;;;12.50;49.80;;;;;;5075496;28;20020;-62
2021/04/27 08:28:02;;;;;;;5.78;3.92;;;12.40;49.70;;;;;;5072612;28;20035;-62
2021/04/27 08:30:29;;;;;;;4.88;3.90;;;12.40;49.80;;;;;;5073141;28;20036;-60
2021/04/27 08:32:56;;;;;;;5.43;3.70;;;12.30;49.70;;;;;;5045992;28;20077;-61
2021/04/27 08:35:22;;;;;;;4.78;3.90;;;12.20;49.70;;;;;;5055720;28;20080;-61
2021/04/27 08:37:49;;;;;;;4.25;3.55;;;12.20;49.80;;;;;;5071329;28;20055;-61
2021/04/27 08:40:16;;;;;;;5.55;3.67;;;12.10;49.80;;;;;;5072013;28;20074;-61
2021/04/27 08:42:46;;;;;;;4.07;3.30;;;12.10;49.90;;;;;;5070475;28;20024;-61
2021/04/27 08:45:12;;;;;;;4.70;3.80;;;12.10;50.10;;;;;;5055459;28;20035;-61
2021/04/27 08:47:38;;;;;;;4.22;3.45;;;12.10;50.20;;;;;;5072935;28;20035;-61
2021/04/27 08:50:10;;;;;;;4.45;3.80;;;12.10;50.10;;;;;;5079899;28;20117;-61
2021/04/27 08:52:37;;;;;;;5.88;4.20;;;12.10;50.20;;;;;;5080679;28;20060;-59
2021/04/27 08:55:07;;;;;;;4.50;3.70;;;12.10;50.30;;;;;;5078928;28;20024;-61
2021/04/27 08:57:33;;;;;;;5.38;3.78;;;12.10;51.00;;;;;;5074003;28;20059;-61
2021/04/27 09:00:00;;;;;;;5.10;3.60;;;12.20;50.70;;;;;;5078375;28;20070;-61
2021/04/27 09:02:28;;;;;;;5.45;3.95;;;12.30;50.40;;;;;;5059271;28;20033;-61
2021/04/27 09:04:54;;;;;;;5.00;4.47;;;12.30;50.20;;;;;;5076698;28;20036;-61
2021/04/27 09:07:22;;;;;;;5.90;4.03;;;12.40;50.30;;;;;;5069059;28;20076;-60
2021/04/27 09:09:49;;;;;;;5.25;3.72;;;12.50;50.50;;;;;;5073631;28;20561;-61
2021/04/27 09:12:24;;;;;;;4.35;3.67;;;12.50;50.30;;;;;;5071715;28;20399;-61
2021/04/27 09:14:51;;;;;;;4.30;3.58;;;12.60;50.00;;;;;;5072759;28;20056;-61
2021/04/27 09:17:17;;;;;;;5.13;3.35;;;12.60;49.90;;;;;;5068728;28;20028;-61
2021/04/27 09:19:49;;;;;;;5.13;4.05;;;12.70;50.00;;;;;;5076065;28;20021;-61
2021/04/27 09:22:19;;;;;;;4.90;3.67;;;12.70;49.60;;;;;;5077518;28;20026;-61
2021/04/27 09:24:57;;;;;;;4.43;3.43;;;12.80;49.80;;;;;;5072459;28;20289;-61
2021/04/27 09:27:31;;;;;;;5.10;3.67;;;12.80;49.90;;;;;;5073053;28;20028;-61
2021/04/27 09:30:19;;;;;;;5.45;3.63;;;12.90;49.80;;;;;;5074914;28;20028;-61
2021/04/27 09:32:54;;;;;;;4.72;3.60;;;12.90;49.90;;;;;;5083375;28;20020;-61
2021/04/27 09:35:42;;;;;;;5.00;3.75;;;12.90;49.80;;;;;;5072810;28;20040;-61
2021/04/27 09:38:24;;;;;;;5.05;3.85;;;12.90;50.30;;;;;;5083126;28;20032;-61
2021/04/27 09:40:55;;;;;;;4.18;3.45;;;12.90;50.20;;;;;;5081637;28;20380;-61
2021/04/27 09:43:22;;;;;;;;;;;12.90;50.10;;;;;;5074799;28;20036;-61
2021/04/27 09:45:50;;;;;;;5.80;3.70;;;12.80;49.90;;;;;;5077744;28;20384;-61
2021/04/27 09:48:30;;;;;;;6.85;3.72;;;12.80;50.10;;;;;;5076431;28;20034;-61
2021/04/27 09:51:22;;;;;;;4.30;3.67;;;12.80;50.40;;;;;;5080101;28;20052;-61
2021/04/27 09:53:54;;;;;;;4.95;3.97;;;12.80;50.30;;;;;;5070462;28;20059;-61
2021/04/27 09:56:43;;;;;;;4.10;3.40;;;12.80;50.70;;;;;;5078474;28;20068;-61
2021/04/27 09:59:13;;;;;;;4.55;3.75;;;12.80;50.70;;;;;;5083429;28;20120;-61
2021/04/27 10:01:40;;;;;;;5.57;3.80;;;12.80;50.60;;;;;;5079382;28;20047;-61
2021/04/27 10:04:06;;;;;;;5.20;3.85;;;12.90;50.60;;;;;;5073443;28;20055;-61
2021/04/27 10:06:34;;;;;;;4.70;3.75;;;12.90;50.70;;;;;;5069916;28;20081;-62
2021/04/27 10:08:59;;;;;;;5.60;4.18;;;12.90;50.70;;;;;;5069938;28;20028;-61
2021/04/27 10:11:27;;;;;;;5.68;4.18;;;12.90;50.80;;;;;;5072520;28;20089;-61
2021/04/27 10:13:56;;;;;;;4.60;3.70;;;12.90;50.50;;;;;;5075341;28;20040;-62
2021/04/27 10:16:23;;;;;;;5.25;3.75;;;13.00;50.60;;;;;;5078967;28;20052;-61
2021/04/27 10:18:52;;;;;;;4.43;3.65;;;12.90;50.10;;;;;;5081752;28;20517;-61
2021/04/27 10:21:18;;;;;;;4.40;3.80;;;12.90;50.20;;;;;;5081675;28;20024;-61
2021/04/27 10:23:51;;;;;;;5.05;3.50;;;12.70;50.00;;;;;;5082453;28;20031;-62
2021/04/27 10:26:21;;;;;;;4.95;3.60;;;12.60;50.20;;;;;;5083651;28;20021;-61
2021/04/27 10:28:57;;;;;;;5.13;3.88;;;12.40;50.50;;;;;;5082552;28;20082;-61
2021/04/27 10:31:24;;;;;;;4.68;3.90;;;12.30;50.20;;;;;;5081723;28;20068;-61
2021/04/27 10:34:19;;;;;;;4.88;3.47;;;12.20;50.70;;;;;;5082939;28;20055;-61
2021/04/27 10:36:48;;;;;;;4.07;3.55;;;12.10;50.80;;;;;;5079346;28;20016;-61
2021/04/27 10:39:13;;;;;;;5.47;3.70;;;12.10;51.10;;;;;;5082096;28;20028;-62
2021/04/27 10:41:45;;;;;;;5.80;3.78;;;12.20;51.40;;;;;;5078872;28;20031;-61
2021/04/27 10:44:11;;;;;;;4.55;3.40;;;12.30;51.40;;;;;;5080659;28;22067;-62
2021/04/27 10:46:40;;;;;;;4.40;3.58;;;12.40;51.40;;;;;;5084118;28;20476;-61
2021/04/27 10:49:29;;;;;;;4.07;3.67;;;12.50;51.30;;;;;;5082042;28;20028;-61
2021/04/27 10:51:56;;;;;;;4.93;3.47;;;12.70;51.40;;;;;;5073663;28;20067;-61
2021/04/27 10:54:27;;;;;;;4.90;3.80;;;12.70;50.60;;;;;;5081185;28;20032;-63
2021/04/27 10:56:56;;;;;;;3.67;3.30;;;12.60;50.60;;;;;;5087849;28;20020;-60
2021/04/27 10:59:24;;;;;;;3.38;2.90;;;12.50;50.70;;;;;;5083179;28;20036;-62
2021/04/27 11:02:09;;;;;;;5.45;3.13;;;12.40;50.80;;;;;;5075036;28;20032;-63
2021/04/27 11:05:03;;;;;;;3.30;3.00;;;12.20;51.40;;;;;;5070357;28;20035;-61
2021/04/27 11:07:33;;;;;;;4.03;3.35;;;12.20;51.80;;;;;;5062035;28;20046;-61
2021/04/27 11:09:58;;;;;;;4.68;3.53;;;12.00;51.90;;;;;;5081373;28;20072;-64
2021/04/27 11:12:35;;;;;;;3.53;3.20;;;12.00;52.00;;;;;;5080716;28;20103;-61
2021/04/27 11:15:05;;;;;;;6.75;3.60;;;12.00;52.00;;;;;;5075798;28;20123;-61
2021/04/27 11:17:39;;;;;;;5.32;4.07;;;11.90;52.40;;;;;;5082549;28;20028;-61
2021/04/27 11:20:10;;;;;;;5.03;3.78;;;11.70;52.30;;;;;;5085058;28;21279;-60
2021/04/27 11:22:52;;;;;;;6.22;3.92;;;11.70;52.40;;;;;;5082235;28;20039;-61
2021/04/27 11:25:34;;;;;;;5.28;3.80;;;11.60;52.50;;;;;;5076803;28;20036;-61
2021/04/27 11:28:01;;;;;;;4.43;3.90;;;11.50;52.60;;;;;;5076521;28;20032;-61
2021/04/27 11:30:34;;;;;;;4.80;3.55;;;11.50;52.70;;;;;;5079772;28;20127;-61
2021/04/27 11:33:05;;;;;;;4.38;3.33;;;11.50;52.90;;;;;;5075829;28;20043;-61
2021/04/27 11:35:41;;;;;;;4.97;3.40;;;11.50;52.90;;;;;;5078685;28;20028;-61
2021/04/27 11:38:07;;;;;;;4.93;3.83;;;11.50;52.30;;;;;;5073539;28;20047;-61
2021/04/27 11:40:38;;;;;;;5.80;3.47;;;11.60;52.00;;;;;;5074306;28;20238;-61
2021/04/27 11:43:11;;;;;;;5.80;3.80;;;11.70;51.80;;;;;;5076972;28;20031;-61
2021/04/27 11:45:46;;;;;;;4.03;3.40;;;11.80;51.60;;;;;;5074810;28;20120;-61
2021/04/27 11:48:19;;;;;;;5.35;3.38;;;12.00;51.70;;;;;;5076071;28;20039;-61
2021/04/27 11:50:46;;;;;;;4.95;3.67;;;12.00;51.40;;;;;;5046233;28;20044;-61
2021/04/27 11:53:15;;;;;;;4.53;3.97;;;12.00;51.20;;;;;;5017048;28;20032;-61
2021/04/27 11:55:50;;;;;;;10.05;6.15;;;12.10;51.20;;;;;;5020987;28;20037;-61
2021/04/27 11:58:15;;;;;;;9.45;5.63;;;12.10;51.60;;;;;;5015324;28;20030;-61
2021/04/27 12:00:58;;;;;;;9.43;5.80;;;12.00;52.00;;;;;;5016303;28;20076;-61
2021/04/27 12:03:44;;;;;;;9.63;6.57;;;11.80;52.70;;;;;;5019424;28;20083;-61
2021/04/27 12:06:16;;;;;;;10.77;5.82;;;11.60;53.80;;;;;;5017623;28;20029;-61
2021/04/27 12:08:50;;;;;;;10.23;6.60;;;11.50;54.40;;;;;;5014143;28;20482;-61
2021/04/27 12:11:18;;;;;;;13.70;7.20;;;11.30;55.00;;;;;;5019929;28;20048;-61
2021/04/27 12:13:49;;;;;;;8.45;6.53;;;11.10;54.90;;;;;;5016584;28;20026;-61
2021/04/27 12:16:17;;;;;;;10.82;6.85;;;11.00;55.90;;;;;;5002476;28;20061;-61
2021/04/27 12:18:54;;;;;;;10.23;6.95;;;10.70;56.60;;;;;;5018339;28;20022;-61
2021/04/27 12:21:39;;;;;;;9.50;6.55;;;10.60;57.30;;;;;;5019929;28;20045;-61
2021/04/27 12:24:15;;;;;;;10.18;6.47;;;10.50;57.50;;;;;;5020705;28;20056;-61
2021/04/27 12:26:56;;;;;;;7.47;6.28;;;10.40;57.30;;;;;;5019508;28;20651;-61
2021/04/27 12:29:51;;;;;;;9.35;7.10;;;10.30;57.60;;;;;;5024521;28;20037;-61
2021/04/27 12:32:25;;;;;;;8.70;6.63;;;10.30;58.20;;;;;;5023008;28;20048;-61
2021/04/27 12:35:01;;;;;;;9.07;7.18;;;10.20;58.40;;;;;;5020415;28;20041;-61
2021/04/27 12:37:39;;;;;;;10.68;7.45;;;10.20;59.00;;;;;;5020539;28;20029;-61
2021/04/27 12:40:26;;;;;;;12.15;7.63;;;10.30;59.90;;;;;;5015448;28;20029;-61
2021/04/27 12:43:01;;;;;;;8.20;6.43;;;10.40;59.70;;;;;;5017850;28;20030;-61
2021/04/27 12:45:48;;;;;;;9.18;5.75;;;10.40;60.50;;;;;;5019613;28;20113;-61
2021/04/27 12:48:16;;;;;;;7.40;5.90;;;10.50;61.20;;;;;;5016603;28;20033;-61
2021/04/27 12:51:00;;;;;;;7.28;5.57;;;10.50;61.70;;;;;;5012197;28;20402;-61
2021/04/27 12:53:43;;;;;;;6.30;5.30;;;10.60;62.30;;;;;;4999293;28;20072;-61
2021/04/27 12:56:17;;;;;;;5.65;4.82;;;10.60;62.20;;;;;;5017814;28;20120;-61